sensor_id;sensor_type;location;lat;lon;timestamp;pressure;altitude;pressure_sealevel;temperature;humidity
64886;BME280;51514;52.206;5.114;2023-08-06T00:00:35;100483.41;;;22.47;61.82
64886;BME280;51514;52.206;5.114;2023-08-06T00:03:00;100488.06;;;22.47;61.48
64886;BME280;51514;52.206;5.114;2023-08-06T00:05:26;100487.22;;;22.46;61.58
64886;BME280;51514;52.206;5.114;2023-08-06T00:07:51;100484.50;;;22.46;61.58
64886;BME280;51514;52.206;5.114;2023-08-06T00:10:17;100487.47;;;22.45;61.74
64886;BME280;51514;52.206;5.114;2023-08-06T00:12:43;100489.97;;;22.46;61.61
64886;BME280;51514;52.206;5.114;2023-08-06T00:15:09;100494.63;;;22.46;61.59
64886;BME280;51514;52.206;5.114;2023-08-06T00:17:35;100484.72;;;22.45;61.50
64886;BME280;51514;52.206;5.114;2023-08-06T00:20:01;100492.13;;;22.44;61.66
64886;BME280;51514;52.206;5.114;2023-08-06T00:22:31;100487.47;;;22.45;61.57
64886;BME280;51514;52.206;5.114;2023-08-06T00:24:57;100488.56;;;22.44;61.50
64886;BME280;51514;52.206;5.114;2023-08-06T00:27:22;100483.91;;;22.44;61.66
64886;BME280;51514;52.206;5.114;2023-08-06T00:29:48;100488.56;;;22.44;61.55
64886;BME280;51514;52.206;5.114;2023-08-06T00:32:13;100486.03;;;22.42;61.63
64886;BME280;51514;52.206;5.114;2023-08-06T00:34:38;100495.97;;;22.43;61.72
64886;BME280;51514;52.206;5.114;2023-08-06T00:37:04;100494.28;;;22.42;61.48
64886;BME280;51514;52.206;5.114;2023-08-06T00:39:29;100489.63;;;22.43;61.38
64886;BME280;51514;52.206;5.114;2023-08-06T00:41:55;100488.78;;;22.42;61.65
64886;BME280;51514;52.206;5.114;2023-08-06T00:46:45;100484.63;;;22.40;61.70
64886;BME280;51514;52.206;5.114;2023-08-06T00:49:11;100486.53;;;22.39;61.71
64886;BME280;51514;52.206;5.114;2023-08-06T00:51:36;100487.34;;;22.40;61.69
64886;BME280;51514;52.206;5.114;2023-08-06T00:54:02;100480.22;;;22.39;61.33
64886;BME280;51514;52.206;5.114;2023-08-06T00:56:28;100489.28;;;22.39;61.67
64886;BME280;51514;52.206;5.114;2023-08-06T00:58:53;100488.47;;;22.39;61.48
64886;BME280;51514;52.206;5.114;2023-08-06T01:01:19;100481.31;;;22.38;61.40
64886;BME280;51514;52.206;5.114;2023-08-06T01:03:44;100488.47;;;22.39;61.50
64886;BME280;51514;52.206;5.114;2023-08-06T01:06:09;100486.81;;;22.38;61.41
64886;BME280;51514;52.206;5.114;2023-08-06T01:09:01;100480.34;;;22.32;61.59
64886;BME280;51514;52.206;5.114;2023-08-06T01:11:42;100482.38;;;22.37;61.49
64886;BME280;51514;52.206;5.114;2023-08-06T01:14:17;100483.69;;;22.34;61.39
64886;BME280;51514;52.206;5.114;2023-08-06T01:16:44;100480.72;;;22.36;61.72
64886;BME280;51514;52.206;5.114;2023-08-06T01:19:19;100472.94;;;22.33;61.46
64886;BME280;51514;52.206;5.114;2023-08-06T01:21:45;100469.97;;;22.34;61.44
64886;BME280;51514;52.206;5.114;2023-08-06T01:24:10;100479.88;;;22.35;61.37
64886;BME280;51514;52.206;5.114;2023-08-06T01:26:48;100479.53;;;22.32;61.77
64886;BME280;51514;52.206;5.114;2023-08-06T01:29:23;100476.78;;;22.32;61.34
64886;BME280;51514;52.206;5.114;2023-08-06T01:31:51;100480.13;;;22.34;61.51
64886;BME280;51514;52.206;5.114;2023-08-06T01:34:21;100478.69;;;22.31;61.71
64886;BME280;51514;52.206;5.114;2023-08-06T01:36:47;100471.28;;;22.32;61.35
64886;BME280;51514;52.206;5.114;2023-08-06T01:39:12;100484.78;;;22.33;61.28
64886;BME280;51514;52.206;5.114;2023-08-06T01:41:38;100479.53;;;22.32;61.75
64886;BME280;51514;52.206;5.114;2023-08-06T01:44:03;100478.44;;;22.33;61.39
64886;BME280;51514;52.206;5.114;2023-08-06T01:46:29;100479.53;;;22.32;61.33
64886;BME280;51514;52.206;5.114;2023-08-06T01:48:54;100486.94;;;22.31;61.75
64886;BME280;51514;52.206;5.114;2023-08-06T01:51:19;100486.94;;;22.31;61.58
64886;BME280;51514;52.206;5.114;2023-08-06T01:53:45;100486.94;;;22.31;61.66
64886;BME280;51514;52.206;5.114;2023-08-06T01:56:10;100484.41;;;22.30;61.68
64886;BME280;51514;52.206;5.114;2023-08-06T01:58:35;100478.91;;;22.30;61.43
64886;BME280;51514;52.206;5.114;2023-08-06T02:01:02;100483.34;;;22.31;61.53
64886;BME280;51514;52.206;5.114;2023-08-06T02:03:27;100478.91;;;22.30;61.61
64886;BME280;51514;52.206;5.114;2023-08-06T02:05:52;100484.66;;;22.28;61.64
64886;BME280;51514;52.206;5.114;2023-08-06T02:08:18;100486.59;;;22.28;61.95
64886;BME280;51514;52.206;5.114;2023-08-06T02:10:44;100484.66;;;22.28;61.37
64886;BME280;51514;52.206;5.114;2023-08-06T02:13:09;100497.59;;;22.28;61.35
64886;BME280;51514;52.206;5.114;2023-08-06T02:15:35;100490.41;;;22.27;61.78
64886;BME280;51514;52.206;5.114;2023-08-06T02:18:00;100495.91;;;22.27;61.49
64886;BME280;51514;52.206;5.114;2023-08-06T02:20:25;100493.16;;;22.27;61.75
64886;BME280;51514;52.206;5.114;2023-08-06T02:22:51;100487.69;;;22.27;61.41
64886;BME280;51514;52.206;5.114;2023-08-06T02:25:16;100492.09;;;22.28;61.72
64886;BME280;51514;52.206;5.114;2023-08-06T02:27:41;100495.91;;;22.27;61.38
64886;BME280;51514;52.206;5.114;2023-08-06T02:30:07;100490.41;;;22.27;61.50
64886;BME280;51514;52.206;5.114;2023-08-06T02:32:33;100488.75;;;22.26;61.54
64886;BME280;51514;52.206;5.114;2023-08-06T02:35:01;100493.41;;;22.25;61.54
64886;BME280;51514;52.206;5.114;2023-08-06T02:37:27;100485.41;;;22.24;61.56
64886;BME280;51514;52.206;5.114;2023-08-06T02:39:52;100483.50;;;22.24;61.13
64886;BME280;51514;52.206;5.114;2023-08-06T02:42:18;100485.41;;;22.24;61.56
64886;BME280;51514;52.206;5.114;2023-08-06T02:44:43;100477.16;;;22.24;61.57
64886;BME280;51514;52.206;5.114;2023-08-06T02:47:08;100481.00;;;22.23;61.45
64886;BME280;51514;52.206;5.114;2023-08-06T02:49:34;100488.16;;;22.24;61.88
64886;BME280;51514;52.206;5.114;2023-08-06T02:51:59;100485.41;;;22.24;61.76
64886;BME280;51514;52.206;5.114;2023-08-06T02:54:24;100486.47;;;22.23;61.62
64886;BME280;51514;52.206;5.114;2023-08-06T02:56:50;100482.91;;;22.22;61.42
64886;BME280;51514;52.206;5.114;2023-08-06T02:59:15;100486.72;;;22.21;61.40
64886;BME280;51514;52.206;5.114;2023-08-06T03:01:40;100479.31;;;22.21;61.60
64886;BME280;51514;52.206;5.114;2023-08-06T03:04:06;100476.56;;;22.21;61.51
64886;BME280;51514;52.206;5.114;2023-08-06T03:06:32;100477.41;;;22.22;61.78
64886;BME280;51514;52.206;5.114;2023-08-06T03:08:57;100480.41;;;22.20;61.44
64886;BME280;51514;52.206;5.114;2023-08-06T03:11:22;100483.13;;;22.20;61.55
64886;BME280;51514;52.206;5.114;2023-08-06T03:13:48;100477.66;;;22.20;61.69
64886;BME280;51514;52.206;5.114;2023-08-06T03:16:13;100478.72;;;22.19;61.35
64886;BME280;51514;52.206;5.114;2023-08-06T03:18:39;100475.97;;;22.19;61.80
64886;BME280;51514;52.206;5.114;2023-08-06T03:21:05;100475.97;;;22.19;61.70
64886;BME280;51514;52.206;5.114;2023-08-06T03:23:30;100477.06;;;22.18;61.40
64886;BME280;51514;52.206;5.114;2023-08-06T03:25:55;100476.22;;;22.18;61.42
64886;BME280;51514;52.206;5.114;2023-08-06T03:28:21;100480.88;;;22.17;61.67
64886;BME280;51514;52.206;5.114;2023-08-06T03:30:47;100475.38;;;22.17;61.45
64886;BME280;51514;52.206;5.114;2023-08-06T03:33:13;100480.06;;;22.17;61.51
64886;BME280;51514;52.206;5.114;2023-08-06T03:35:38;100483.63;;;22.17;61.58
64886;BME280;51514;52.206;5.114;2023-08-06T03:38:03;100480.06;;;22.17;61.45
64886;BME280;51514;52.206;5.114;2023-08-06T03:40:29;100486.38;;;22.17;61.49
64886;BME280;51514;52.206;5.114;2023-08-06T03:42:54;100481.97;;;22.16;61.57
64886;BME280;51514;52.206;5.114;2023-08-06T03:45:19;100479.22;;;22.16;61.75
64886;BME280;51514;52.206;5.114;2023-08-06T03:47:45;100484.72;;;22.16;61.55
64886;BME280;51514;52.206;5.114;2023-08-06T03:50:10;100484.72;;;22.16;61.78
64886;BME280;51514;52.206;5.114;2023-08-06T03:52:36;100490.22;;;22.16;61.87
64886;BME280;51514;52.206;5.114;2023-08-06T03:55:01;100477.56;;;22.15;61.77
64886;BME280;51514;52.206;5.114;2023-08-06T03:57:27;100488.53;;;22.15;61.85
64886;BME280;51514;52.206;5.114;2023-08-06T03:59:52;100478.63;;;22.14;61.90
64886;BME280;51514;52.206;5.114;2023-08-06T04:02:18;100475.88;;;22.14;61.57
64886;BME280;51514;52.206;5.114;2023-08-06T04:04:43;100481.38;;;22.14;61.83
64886;BME280;51514;52.206;5.114;2023-08-06T04:07:08;100478.63;;;22.14;61.78
64886;BME280;51514;52.206;5.114;2023-08-06T04:09:34;100488.78;;;22.14;61.50
64886;BME280;51514;52.206;5.114;2023-08-06T04:12:15;100493.44;;;22.13;61.41
64886;BME280;51514;52.206;5.114;2023-08-06T04:14:41;100485.19;;;22.13;61.50
64886;BME280;51514;52.206;5.114;2023-08-06T04:17:06;100494.28;;;22.14;61.74
64886;BME280;51514;52.206;5.114;2023-08-06T04:19:31;100487.13;;;22.13;61.67
64886;BME280;51514;52.206;5.114;2023-08-06T04:21:57;100494.50;;;22.12;61.72
64886;BME280;51514;52.206;5.114;2023-08-06T04:24:22;100494.50;;;22.12;61.67
64886;BME280;51514;52.206;5.114;2023-08-06T04:26:47;100492.84;;;22.11;61.72
64886;BME280;51514;52.206;5.114;2023-08-06T04:29:13;100493.69;;;22.12;61.48
64886;BME280;51514;52.206;5.114;2023-08-06T04:31:38;100494.75;;;22.11;61.62
64886;BME280;51514;52.206;5.114;2023-08-06T04:34:03;100496.66;;;22.10;61.67
64886;BME280;51514;52.206;5.114;2023-08-06T04:36:29;100496.66;;;22.10;61.69
64886;BME280;51514;52.206;5.114;2023-08-06T04:38:54;100502.16;;;22.10;61.53
64886;BME280;51514;52.206;5.114;2023-08-06T04:41:20;100512.31;;;22.10;61.34
64886;BME280;51514;52.206;5.114;2023-08-06T04:43:45;100501.31;;;22.10;61.47
64886;BME280;51514;52.206;5.114;2023-08-06T04:46:10;100511.47;;;22.09;61.49
64886;BME280;51514;52.206;5.114;2023-08-06T04:48:36;100512.53;;;22.08;61.52
64886;BME280;51514;52.206;5.114;2023-08-06T04:51:01;100516.38;;;22.07;61.61
64886;BME280;51514;52.206;5.114;2023-08-06T04:53:26;100519.94;;;22.08;61.87
64886;BME280;51514;52.206;5.114;2023-08-06T04:55:52;100517.19;;;22.08;61.81
64886;BME280;51514;52.206;5.114;2023-08-06T04:58:17;100522.69;;;22.08;61.69
64886;BME280;51514;52.206;5.114;2023-08-06T05:00:42;100518.28;;;22.07;61.61
64886;BME280;51514;52.206;5.114;2023-08-06T05:03:08;100524.59;;;22.07;61.61
64886;BME280;51514;52.206;5.114;2023-08-06T05:05:33;100525.44;;;22.08;61.58
64886;BME280;51514;52.206;5.114;2023-08-06T05:07:59;100528.44;;;22.06;61.67
64886;BME280;51514;52.206;5.114;2023-08-06T05:10:25;100525.72;;;22.06;61.62
64886;BME280;51514;52.206;5.114;2023-08-06T05:12:51;100533.94;;;22.06;61.51
64886;BME280;51514;52.206;5.114;2023-08-06T05:15:16;100529.53;;;22.05;61.79
64886;BME280;51514;52.206;5.114;2023-08-06T05:17:42;100531.44;;;22.05;61.39
64886;BME280;51514;52.206;5.114;2023-08-06T05:20:07;100530.59;;;22.04;61.72
64886;BME280;51514;52.206;5.114;2023-08-06T05:22:33;100538.84;;;22.04;61.54
64886;BME280;51514;52.206;5.114;2023-08-06T05:24:58;100542.66;;;22.03;61.85
64886;BME280;51514;52.206;5.114;2023-08-06T05:27:24;100548.75;;;22.05;61.51
64886;BME280;51514;52.206;5.114;2023-08-06T05:29:49;100545.41;;;22.03;61.74
64886;BME280;51514;52.206;5.114;2023-08-06T05:32:14;100554.47;;;22.04;61.51
64886;BME280;51514;52.206;5.114;2023-08-06T05:34:40;100558.91;;;22.05;61.61
64886;BME280;51514;52.206;5.114;2023-08-06T05:37:06;100565.22;;;22.05;61.87
64886;BME280;51514;52.206;5.114;2023-08-06T05:39:32;100566.28;;;22.04;61.65
64886;BME280;51514;52.206;5.114;2023-08-06T05:41:57;100563.78;;;22.03;61.75
64886;BME280;51514;52.206;5.114;2023-08-06T05:44:23;100574.53;;;22.04;61.50
64886;BME280;51514;52.206;5.114;2023-08-06T05:46:49;100567.97;;;22.05;61.61
64886;BME280;51514;52.206;5.114;2023-08-06T05:49:14;100573.47;;;22.05;61.81
64886;BME280;51514;52.206;5.114;2023-08-06T05:51:39;100576.22;;;22.05;61.60
64886;BME280;51514;52.206;5.114;2023-08-06T05:54:05;100574.53;;;22.04;61.57
64886;BME280;51514;52.206;5.114;2023-08-06T05:56:30;100585.53;;;22.04;61.72
64886;BME280;51514;52.206;5.114;2023-08-06T05:58:56;100573.69;;;22.04;61.68
64886;BME280;51514;52.206;5.114;2023-08-06T06:01:21;100578.34;;;22.03;61.45
64886;BME280;51514;52.206;5.114;2023-08-06T06:03:47;100584.69;;;22.04;61.94
64886;BME280;51514;52.206;5.114;2023-08-06T06:06:12;100589.34;;;22.03;61.57
64886;BME280;51514;52.206;5.114;2023-08-06T06:08:38;100594.81;;;22.03;61.65
64886;BME280;51514;52.206;5.114;2023-08-06T06:11:03;100593.16;;;22.02;61.37
64886;BME280;51514;52.206;5.114;2023-08-06T06:13:28;100594.00;;;22.03;61.67
64886;BME280;51514;52.206;5.114;2023-08-06T06:15:54;100599.47;;;22.03;61.48
64886;BME280;51514;52.206;5.114;2023-08-06T06:18:21;100603.31;;;22.02;61.60
64886;BME280;51514;52.206;5.114;2023-08-06T06:20:46;100602.47;;;22.01;61.61
64886;BME280;51514;52.206;5.114;2023-08-06T06:23:11;100607.97;;;22.01;61.87
64886;BME280;51514;52.206;5.114;2023-08-06T06:25:42;100603.78;;;21.99;61.56
64886;BME280;51514;52.206;5.114;2023-08-06T06:28:08;100606.88;;;22.02;61.87
64886;BME280;51514;52.206;5.114;2023-08-06T06:30:33;100616.19;;;22.01;61.80
64886;BME280;51514;52.206;5.114;2023-08-06T06:32:59;100613.44;;;22.01;61.70
64886;BME280;51514;52.206;5.114;2023-08-06T06:35:24;100620.84;;;22.01;61.61
64886;BME280;51514;52.206;5.114;2023-08-06T06:37:49;100627.41;;;22.00;62.01
64886;BME280;51514;52.206;5.114;2023-08-06T06:40:15;100625.75;;;21.99;61.98
64886;BME280;51514;52.206;5.114;2023-08-06T06:42:40;100638.41;;;22.00;61.87
64886;BME280;51514;52.206;5.114;2023-08-06T06:45:06;100632.91;;;22.00;61.72
64886;BME280;51514;52.206;5.114;2023-08-06T06:47:32;100638.41;;;22.00;61.74
64886;BME280;51514;52.206;5.114;2023-08-06T06:49:57;100635.88;;;21.98;61.79
64886;BME280;51514;52.206;5.114;2023-08-06T06:52:22;100643.06;;;21.99;61.67
64886;BME280;51514;52.206;5.114;2023-08-06T06:54:48;100635.88;;;21.98;61.92
64886;BME280;51514;52.206;5.114;2023-08-06T06:57:13;100636.72;;;21.99;61.72
64886;BME280;51514;52.206;5.114;2023-08-06T06:59:39;100636.72;;;21.99;61.67
64886;BME280;51514;52.206;5.114;2023-08-06T07:02:05;100636.72;;;21.99;61.96
64886;BME280;51514;52.206;5.114;2023-08-06T07:04:30;100651.28;;;21.99;61.82
64886;BME280;51514;52.206;5.114;2023-08-06T07:06:56;100641.38;;;21.98;62.25
64886;BME280;51514;52.206;5.114;2023-08-06T07:09:21;100644.13;;;21.98;61.88
64886;BME280;51514;52.206;5.114;2023-08-06T07:11:46;100639.66;;;21.97;62.15
64886;BME280;51514;52.206;5.114;2023-08-06T07:14:12;100642.41;;;21.97;62.24
64886;BME280;51514;52.206;5.114;2023-08-06T07:16:37;100646.00;;;21.98;62.12
64886;BME280;51514;52.206;5.114;2023-08-06T07:19:02;100638.81;;;21.97;61.90
64886;BME280;51514;52.206;5.114;2023-08-06T07:21:28;100649.81;;;21.97;62.12
64886;BME280;51514;52.206;5.114;2023-08-06T07:23:53;100640.75;;;21.96;62.41
64886;BME280;51514;52.206;5.114;2023-08-06T07:26:19;100650.66;;;21.97;62.12
64886;BME280;51514;52.206;5.114;2023-08-06T07:28:45;100654.47;;;21.96;62.30
64886;BME280;51514;52.206;5.114;2023-08-06T07:31:10;100659.72;;;21.98;62.25
64886;BME280;51514;52.206;5.114;2023-08-06T07:33:36;100659.97;;;21.96;62.18
64886;BME280;51514;52.206;5.114;2023-08-06T07:36:08;100667.34;;;21.96;62.35
64886;BME280;51514;52.206;5.114;2023-08-06T07:38:35;100668.84;;;21.98;62.45
64886;BME280;51514;52.206;5.114;2023-08-06T07:41:06;100668.84;;;21.98;62.71
64886;BME280;51514;52.206;5.114;2023-08-06T07:43:31;100662.47;;;21.98;62.37
64886;BME280;51514;52.206;5.114;2023-08-06T07:46:00;100668.19;;;21.96;62.41
64886;BME280;51514;52.206;5.114;2023-08-06T07:48:26;100677.91;;;21.99;62.59
64886;BME280;51514;52.206;5.114;2023-08-06T07:50:52;100681.50;;;21.99;62.61
64886;BME280;51514;52.206;5.114;2023-08-06T07:53:21;100679.59;;;22.00;62.71
64886;BME280;51514;52.206;5.114;2023-08-06T07:55:50;100684.25;;;21.99;62.54
64886;BME280;51514;52.206;5.114;2023-08-06T07:58:16;100685.69;;;22.02;62.63
64886;BME280;51514;52.206;5.114;2023-08-06T08:00:42;100684.84;;;22.01;62.65
64886;BME280;51514;52.206;5.114;2023-08-06T08:03:11;100691.16;;;22.02;62.72
64886;BME280;51514;52.206;5.114;2023-08-06T08:05:37;100685.69;;;22.02;62.84
64886;BME280;51514;52.206;5.114;2023-08-06T08:08:02;100685.69;;;22.02;62.83
64886;BME280;51514;52.206;5.114;2023-08-06T08:10:27;100680.19;;;22.02;62.77
64886;BME280;51514;52.206;5.114;2023-08-06T08:12:53;100686.50;;;22.02;62.69
64886;BME280;51514;52.206;5.114;2023-08-06T08:15:18;100674.69;;;22.02;62.96
64886;BME280;51514;52.206;5.114;2023-08-06T08:17:44;100681.88;;;22.03;62.76
64886;BME280;51514;52.206;5.114;2023-08-06T08:20:09;100688.19;;;22.03;62.79
64886;BME280;51514;52.206;5.114;2023-08-06T08:22:35;100688.19;;;22.03;63.05
64886;BME280;51514;52.206;5.114;2023-08-06T08:25:00;100687.13;;;22.04;63.13
64886;BME280;51514;52.206;5.114;2023-08-06T08:27:26;100689.25;;;22.02;62.60
64886;BME280;51514;52.206;5.114;2023-08-06T08:29:51;100679.34;;;22.01;63.02
64886;BME280;51514;52.206;5.114;2023-08-06T08:32:16;100692.00;;;22.02;62.98
64886;BME280;51514;52.206;5.114;2023-08-06T08:34:42;100687.34;;;22.03;62.90
64886;BME280;51514;52.206;5.114;2023-08-06T08:37:07;100689.88;;;22.04;63.32
64886;BME280;51514;52.206;5.114;2023-08-06T08:39:33;100692.09;;;22.07;63.29
64886;BME280;51514;52.206;5.114;2023-08-06T08:41:59;100695.84;;;22.13;63.24
64886;BME280;51514;52.206;5.114;2023-08-06T08:44:25;100696.44;;;22.15;63.63
64886;BME280;51514;52.206;5.114;2023-08-06T08:46:53;100701.44;;;22.18;63.43
64886;BME280;51514;52.206;5.114;2023-08-06T08:49:20;100696.31;;;22.21;63.99
64886;BME280;51514;52.206;5.114;2023-08-06T08:51:46;100699.19;;;22.27;63.78
64886;BME280;51514;52.206;5.114;2023-08-06T08:54:13;100698.69;;;22.30;63.95
64886;BME280;51514;52.206;5.114;2023-08-06T08:56:38;100697.38;;;22.32;64.24
64886;BME280;51514;52.206;5.114;2023-08-06T08:59:03;100698.34;;;22.38;64.16
64886;BME280;51514;52.206;5.114;2023-08-06T09:01:29;100700.34;;;22.42;63.96
64886;BME280;51514;52.206;5.114;2023-08-06T09:03:56;100714.47;;;22.46;64.25
64886;BME280;51514;52.206;5.114;2023-08-06T09:06:23;100718.38;;;22.50;64.46
64886;BME280;51514;52.206;5.114;2023-08-06T09:09:13;100714.00;;;22.49;64.61
64886;BME280;51514;52.206;5.114;2023-08-06T09:11:43;100710.88;;;22.57;64.87
64886;BME280;51514;52.206;5.114;2023-08-06T09:14:10;100718.38;;;22.62;64.31
64886;BME280;51514;52.206;5.114;2023-08-06T09:16:36;100722.56;;;22.64;64.49
64886;BME280;51514;52.206;5.114;2023-08-06T09:19:11;100726.38;;;22.63;64.41
64886;BME280;51514;52.206;5.114;2023-08-06T09:21:43;100727.59;;;22.67;63.88
64886;BME280;51514;52.206;5.114;2023-08-06T09:24:10;100730.09;;;22.69;63.75
64886;BME280;51514;52.206;5.114;2023-08-06T09:26:44;100744.06;;;22.67;63.79
64886;BME280;51514;52.206;5.114;2023-08-06T09:29:11;100741.94;;;22.69;64.12
64886;BME280;51514;52.206;5.114;2023-08-06T09:34:15;100750.66;;;22.66;63.94
64886;BME280;51514;52.206;5.114;2023-08-06T09:36:54;100750.66;;;22.66;64.06
64886;BME280;51514;52.206;5.114;2023-08-06T09:39:26;100762.25;;;22.68;63.57
64886;BME280;51514;52.206;5.114;2023-08-06T09:41:56;100759.72;;;22.67;63.98
64886;BME280;51514;52.206;5.114;2023-08-06T09:44:22;100762.47;;;22.67;63.95
64886;BME280;51514;52.206;5.114;2023-08-06T09:46:54;100764.38;;;22.66;64.34
64886;BME280;51514;52.206;5.114;2023-08-06T09:51:59;100773.56;;;22.72;64.07
64886;BME280;51514;52.206;5.114;2023-08-06T09:54:27;100779.22;;;22.77;64.21
64886;BME280;51514;52.206;5.114;2023-08-06T09:56:57;100782.09;;;22.82;64.26
64886;BME280;51514;52.206;5.114;2023-08-06T09:59:25;100782.44;;;22.85;64.48
64886;BME280;51514;52.206;5.114;2023-08-06T10:01:51;100786.78;;;22.81;64.55
64886;BME280;51514;52.206;5.114;2023-08-06T10:04:17;100783.75;;;22.94;64.25
64886;BME280;51514;52.206;5.114;2023-08-06T10:06:46;100782.19;;;22.99;64.17
64886;BME280;51514;52.206;5.114;2023-08-06T10:09:12;100781.47;;;23.03;64.07
64886;BME280;51514;52.206;5.114;2023-08-06T10:11:39;100777.97;;;23.08;64.21
64886;BME280;51514;52.206;5.114;2023-08-06T10:14:11;100780.50;;;23.09;64.28
64886;BME280;51514;52.206;5.114;2023-08-06T10:16:38;100786.69;;;23.16;64.50
64886;BME280;51514;52.206;5.114;2023-08-06T10:19:05;100783.22;;;23.21;64.21
64886;BME280;51514;52.206;5.114;2023-08-06T10:21:32;100783.56;;;23.24;64.21
64886;BME280;51514;52.206;5.114;2023-08-06T10:23:57;100782.22;;;23.27;64.41
64886;BME280;51514;52.206;5.114;2023-08-06T10:26:29;100786.06;;;23.26;63.98
64886;BME280;51514;52.206;5.114;2023-08-06T10:28:55;100780.69;;;23.31;64.13
64886;BME280;51514;52.206;5.114;2023-08-06T10:31:53;100791.56;;;23.26;63.92
64886;BME280;51514;52.206;5.114;2023-08-06T10:34:19;100794.44;;;23.31;64.15
64886;BME280;51514;52.206;5.114;2023-08-06T10:36:44;100793.94;;;23.34;64.24
64886;BME280;51514;52.206;5.114;2023-08-06T10:39:13;100786.63;;;23.40;64.21
64886;BME280;51514;52.206;5.114;2023-08-06T10:41:42;100795.00;;;23.45;64.42
64886;BME280;51514;52.206;5.114;2023-08-06T10:44:08;100790.19;;;23.52;64.09
64886;BME280;51514;52.206;5.114;2023-08-06T10:46:34;100786.72;;;23.56;64.33
64886;BME280;51514;52.206;5.114;2023-08-06T10:48:59;100789.56;;;23.61;64.23
64886;BME280;51514;52.206;5.114;2023-08-06T10:51:25;100792.91;;;23.63;63.85
64886;BME280;51514;52.206;5.114;2023-08-06T10:53:51;100797.94;;;23.67;63.69
64886;BME280;51514;52.206;5.114;2023-08-06T10:56:18;100802.34;;;23.68;63.58
64886;BME280;51514;52.206;5.114;2023-08-06T10:58:45;100805.13;;;23.68;63.45
64886;BME280;51514;52.206;5.114;2023-08-06T11:01:11;100804.28;;;23.67;63.78
64886;BME280;51514;52.206;5.114;2023-08-06T11:03:37;100812.78;;;23.65;63.69
64886;BME280;51514;52.206;5.114;2023-08-06T11:06:03;100811.09;;;23.64;63.62
64886;BME280;51514;52.206;5.114;2023-08-06T11:08:33;100810.03;;;23.65;63.71
64886;BME280;51514;52.206;5.114;2023-08-06T11:13:36;100811.09;;;23.64;63.34
64886;BME280;51514;52.206;5.114;2023-08-06T11:16:01;100816.84;;;23.63;63.54
64886;BME280;51514;52.206;5.114;2023-08-06T11:18:27;100820.91;;;23.60;63.67
64886;BME280;51514;52.206;5.114;2023-08-06T11:20:53;100816.25;;;23.61;63.29
64886;BME280;51514;52.206;5.114;2023-08-06T11:23:18;100822.00;;;23.59;63.65
64886;BME280;51514;52.206;5.114;2023-08-06T11:25:44;100820.31;;;23.58;63.92
64886;BME280;51514;52.206;5.114;2023-08-06T11:28:11;100818.41;;;23.59;64.06
64886;BME280;51514;52.206;5.114;2023-08-06T11:30:37;100821.16;;;23.59;63.74
64886;BME280;51514;52.206;5.114;2023-08-06T11:33:03;100828.59;;;23.58;63.71
64886;BME280;51514;52.206;5.114;2023-08-06T11:35:28;100837.13;;;23.57;63.52
64886;BME280;51514;52.206;5.114;2023-08-06T11:37:53;100842.84;;;23.55;63.60
64886;BME280;51514;52.206;5.114;2023-08-06T11:40:20;100836.75;;;23.53;63.81
64886;BME280;51514;52.206;5.114;2023-08-06T11:42:46;100837.22;;;23.50;63.76
64886;BME280;51514;52.206;5.114;2023-08-06T11:45:12;100835.53;;;23.49;63.82
64886;BME280;51514;52.206;5.114;2023-08-06T11:47:40;100839.34;;;23.48;63.82
64886;BME280;51514;52.206;5.114;2023-08-06T11:50:06;100844.28;;;23.46;63.96
64886;BME280;51514;52.206;5.114;2023-08-06T11:52:31;100835.44;;;23.44;63.64
64886;BME280;51514;52.206;5.114;2023-08-06T11:55:05;100838.66;;;23.41;63.71
64886;BME280;51514;52.206;5.114;2023-08-06T11:57:36;100841.41;;;23.41;63.78
64886;BME280;51514;52.206;5.114;2023-08-06T12:00:09;100849.31;;;23.38;64.12
64886;BME280;51514;52.206;5.114;2023-08-06T12:02:36;100835.56;;;23.38;64.48
64886;BME280;51514;52.206;5.114;2023-08-06T12:05:21;100844.81;;;23.32;64.00
64886;BME280;51514;52.206;5.114;2023-08-06T12:07:51;100843.25;;;23.36;63.86
64886;BME280;51514;52.206;5.114;2023-08-06T12:10:17;100841.34;;;23.36;64.10
64886;BME280;51514;52.206;5.114;2023-08-06T12:12:45;100839.91;;;23.34;64.36
64886;BME280;51514;52.206;5.114;2023-08-06T12:15:10;100843.72;;;23.33;64.22
64886;BME280;51514;52.206;5.114;2023-08-06T12:17:36;100849.47;;;23.31;64.38
64886;BME280;51514;52.206;5.114;2023-08-06T12:20:03;100849.47;;;23.31;64.02
64886;BME280;51514;52.206;5.114;2023-08-06T12:22:31;100845.06;;;23.18;64.49
64886;BME280;51514;52.206;5.114;2023-08-06T12:25:01;100852.69;;;23.28;64.48
64886;BME280;51514;52.206;5.114;2023-08-06T12:27:26;100853.53;;;23.28;64.35
64886;BME280;51514;52.206;5.114;2023-08-06T12:29:51;100852.09;;;23.26;64.21
64886;BME280;51514;52.206;5.114;2023-08-06T12:32:17;100856.75;;;23.25;64.53
64886;BME280;51514;52.206;5.114;2023-08-06T12:34:43;100859.78;;;23.24;64.62
64886;BME280;51514;52.206;5.114;2023-08-06T12:37:09;100853.69;;;23.22;64.64
64886;BME280;51514;52.206;5.114;2023-08-06T12:39:35;100846.72;;;23.19;64.45
64886;BME280;51514;52.206;5.114;2023-08-06T12:42:01;100861.56;;;23.18;64.63
64886;BME280;51514;52.206;5.114;2023-08-06T12:44:27;100864.56;;;23.17;64.47
64886;BME280;51514;52.206;5.114;2023-08-06T12:46:53;100862.03;;;23.15;64.59
64886;BME280;51514;52.206;5.114;2023-08-06T12:49:19;100872.19;;;23.15;64.59
64886;BME280;51514;52.206;5.114;2023-08-06T12:51:50;100866.97;;;23.13;64.42
64886;BME280;51514;52.206;5.114;2023-08-06T12:54:17;100874.38;;;23.13;64.92
64886;BME280;51514;52.206;5.114;2023-08-06T12:56:43;100890.88;;;23.13;64.54